createdAt,value
2022-11-15T00:00:53.653Z,87.00
2022-11-15T00:03:25.106Z,78.70
2022-11-15T00:05:51.998Z,85.93
2022-11-15T00:08:19.044Z,82.17
2022-11-15T00:10:58.488Z,74.90
2022-11-15T00:13:25.479Z,82.97
2022-11-15T00:15:52.317Z,76.77
2022-11-15T00:18:19.217Z,75.80
2022-11-15T00:20:46.038Z,79.07
2022-11-15T00:23:12.919Z,76.97
2022-11-15T00:25:39.682Z,75.00
2022-11-15T00:28:06.515Z,76.10
2022-11-15T00:30:33.363Z,76.43
2022-11-15T00:33:06.105Z,73.43
2022-11-15T00:35:34.520Z,72.13
2022-11-15T00:38:01.796Z,73.07
2022-11-15T00:40:28.641Z,73.33
2022-11-15T00:42:55.580Z,70.30
2022-11-15T00:45:22.446Z,70.87
2022-11-15T00:47:49.234Z,74.40
2022-11-15T00:50:16.300Z,64.87
2022-11-15T00:52:43.132Z,67.17
2022-11-15T00:55:17.041Z,69.73
2022-11-15T00:57:43.950Z,66.07
2022-11-15T01:00:11.295Z,69.93
2022-11-15T01:02:38.104Z,63.57
2022-11-15T01:05:05.311Z,56.03
2022-11-15T01:07:32.228Z,63.93
2022-11-15T01:09:59.105Z,59.53
2022-11-15T01:12:25.948Z,61.43
2022-11-15T01:14:52.982Z,52.30
2022-11-15T01:17:19.762Z,57.73
2022-11-15T01:19:46.569Z,56.27
2022-11-15T01:22:13.425Z,53.50
2022-11-15T01:24:40.212Z,54.87
2022-11-15T01:27:07.177Z,52.73
2022-11-15T01:29:34.017Z,55.53
2022-11-15T01:32:00.809Z,55.03
2022-11-15T01:34:27.613Z,57.17
2022-11-15T01:36:54.384Z,53.10
2022-11-15T01:39:21.169Z,55.50
2022-11-15T01:41:48.124Z,51.23
2022-11-15T01:44:32.831Z,53.00
2022-11-15T01:47:00.800Z,47.70
2022-11-15T01:49:27.569Z,54.90
2022-11-15T01:51:54.777Z,47.60
2022-11-15T01:54:22.125Z,45.30
2022-11-15T01:56:54.687Z,46.13
2022-11-15T01:59:21.562Z,45.33
2022-11-15T02:01:48.437Z,43.53
2022-11-15T02:04:24.541Z,44.33
2022-11-15T02:06:51.371Z,45.27
2022-11-15T02:09:18.498Z,41.50
2022-11-15T02:11:45.415Z,42.57
2022-11-15T02:14:12.222Z,33.63
2022-11-15T02:17:13.290Z,36.10
2022-11-15T02:19:46.196Z,35.80
2022-11-15T02:22:12.943Z,34.97
2022-11-15T02:25:10.888Z,32.47
2022-11-15T02:27:57.285Z,33.83
2022-11-15T02:30:39.310Z,41.37
2022-11-15T02:33:19.085Z,31.77
2022-11-15T02:36:02.769Z,33.23
2022-11-15T02:39:10.940Z,27.87
2022-11-15T02:41:49.467Z,30.03
2022-11-15T02:44:45.193Z,35.13
2022-11-15T02:47:16.146Z,34.67
2022-11-15T02:49:53.450Z,27.40
2022-11-15T02:52:26.281Z,30.27
2022-11-15T02:54:59.729Z,29.33
2022-11-15T02:57:32.066Z,33.17
2022-11-15T02:59:58.859Z,29.13
2022-11-15T03:02:40.629Z,25.87
2022-11-15T03:05:25.407Z,27.20
2022-11-15T03:08:02.638Z,27.13
2022-11-15T03:10:52.373Z,27.60
2022-11-15T03:13:33.501Z,31.93
2022-11-15T03:16:11.051Z,28.63
2022-11-15T03:18:43.002Z,22.23
2022-11-15T03:21:10.500Z,21.53
2022-11-15T03:23:37.690Z,24.40
2022-11-15T03:26:06.086Z,26.27
2022-11-15T03:28:39.230Z,19.47
2022-11-15T03:31:26.041Z,19.43
2022-11-15T03:33:52.927Z,18.73
2022-11-15T03:36:19.695Z,22.77
2022-11-15T03:38:46.509Z,17.70
2022-11-15T03:41:31.639Z,19.60
2022-11-15T03:44:05.700Z,19.93
2022-11-15T03:46:45.540Z,30.83
2022-11-15T03:49:15.615Z,18.67
2022-11-15T03:51:42.414Z,18.53
2022-11-15T03:54:09.203Z,22.20
2022-11-15T03:56:36.008Z,21.53
2022-11-15T03:59:02.817Z,23.07
2022-11-15T04:01:29.628Z,24.23
2022-11-15T04:03:56.506Z,25.63
2022-11-15T04:06:23.262Z,16.33
2022-11-15T04:08:50.024Z,16.43
2022-11-15T04:11:16.828Z,18.37
2022-11-15T04:13:43.588Z,16.17
2022-11-15T04:16:10.351Z,17.23
2022-11-15T04:18:37.231Z,19.27
2022-11-15T04:21:22.746Z,17.43
2022-11-15T04:24:08.147Z,21.50
2022-11-15T04:26:34.911Z,13.87
2022-11-15T04:29:20.217Z,16.17
2022-11-15T04:31:46.986Z,17.27
2022-11-15T04:34:13.740Z,13.87
2022-11-15T04:36:59.117Z,17.70
2022-11-15T04:39:25.877Z,13.20
2022-11-15T04:41:52.710Z,18.13
2022-11-15T04:44:20.528Z,18.83
2022-11-15T04:46:47.345Z,14.53
2022-11-15T04:49:14.118Z,19.37
2022-11-15T04:51:40.889Z,17.40
2022-11-15T04:54:07.763Z,19.67
2022-11-15T04:56:34.568Z,18.23
2022-11-15T04:59:01.377Z,24.60
2022-11-15T05:01:28.204Z,16.20
2022-11-15T05:04:13.361Z,19.93
2022-11-15T05:06:40.166Z,14.10
2022-11-15T05:09:07.025Z,12.40
2022-11-15T05:11:33.868Z,14.83
2022-11-15T05:14:00.690Z,19.37
2022-11-15T05:16:27.528Z,19.93
2022-11-15T05:18:54.786Z,15.87
2022-11-15T05:21:21.677Z,16.57
2022-11-15T05:23:48.555Z,14.77
2022-11-15T05:26:18.695Z,15.97
2022-11-15T05:28:45.641Z,16.07
2022-11-15T05:31:16.357Z,20.70
2022-11-15T05:33:43.896Z,19.23
2022-11-15T05:36:18.768Z,21.03
2022-11-15T05:38:46.826Z,17.93
2022-11-15T05:41:13.586Z,14.23
2022-11-15T05:43:40.549Z,15.47
2022-11-15T05:46:07.447Z,13.83
2022-11-15T05:48:35.501Z,18.73
2022-11-15T05:51:02.313Z,21.23
2022-11-15T05:53:29.497Z,20.67
2022-11-15T05:55:56.572Z,18.03
2022-11-15T05:58:23.333Z,21.27
2022-11-15T06:00:50.093Z,24.30
2022-11-15T06:03:16.887Z,15.03
2022-11-15T06:05:43.668Z,18.43
2022-11-15T06:08:10.474Z,19.30
2022-11-15T06:10:37.276Z,19.80
2022-11-15T06:13:05.217Z,22.67
2022-11-15T06:15:33.519Z,18.07
2022-11-15T06:18:00.367Z,20.00
2022-11-15T06:20:28.075Z,24.60
2022-11-15T06:23:02.049Z,21.33
2022-11-15T06:25:29.325Z,19.57
2022-11-15T06:27:56.877Z,17.07
2022-11-15T06:30:24.006Z,19.43
2022-11-15T06:32:50.817Z,19.07
2022-11-15T06:35:17.655Z,19.97
2022-11-15T06:37:44.523Z,19.13
2022-11-15T06:40:11.917Z,17.83
2022-11-15T06:42:38.721Z,20.63
2022-11-15T06:45:06.043Z,21.13
2022-11-15T06:47:32.803Z,16.10
2022-11-15T06:49:59.652Z,21.90
2022-11-15T06:52:26.461Z,16.07
2022-11-15T06:54:53.269Z,17.40
2022-11-15T06:57:20.035Z,19.07
2022-11-15T06:59:46.873Z,16.77
2022-11-15T07:02:14.549Z,26.63
2022-11-15T07:04:41.338Z,18.70
2022-11-15T07:07:08.186Z,20.70
2022-11-15T07:09:35.128Z,15.97
2022-11-15T07:12:07.280Z,20.73
2022-11-15T07:14:34.848Z,21.20
2022-11-15T07:17:04.007Z,21.80
2022-11-15T07:19:30.809Z,21.17
2022-11-15T07:21:57.673Z,25.30
2022-11-15T07:24:24.442Z,22.63
2022-11-15T07:26:54.510Z,19.77
2022-11-15T07:29:21.377Z,22.73
2022-11-15T07:31:48.242Z,22.63
2022-11-15T07:34:15.003Z,22.50
2022-11-15T07:36:41.804Z,23.73
2022-11-15T07:39:08.602Z,25.93
2022-11-15T07:41:36.047Z,29.50
2022-11-15T07:44:02.918Z,25.00
2022-11-15T07:46:29.674Z,26.00
2022-11-15T07:48:56.472Z,24.60
2022-11-15T07:51:23.358Z,24.73
2022-11-15T07:53:50.164Z,24.57
2022-11-15T07:56:17.008Z,26.70
2022-11-15T07:58:43.760Z,26.07
2022-11-15T08:01:11.173Z,29.87
2022-11-15T08:03:38.465Z,25.53
2022-11-15T08:06:05.519Z,26.57
2022-11-15T08:08:32.301Z,25.33
2022-11-15T08:10:59.796Z,24.70
2022-11-15T08:13:26.566Z,24.57
2022-11-15T08:15:57.496Z,25.87
2022-11-15T08:18:24.702Z,20.43
2022-11-15T08:20:51.485Z,24.57
2022-11-15T08:23:18.289Z,19.47
2022-11-15T08:25:45.132Z,22.47
2022-11-15T08:28:12.166Z,21.87
2022-11-15T08:30:42.545Z,20.03
2022-11-15T08:33:13.072Z,17.17
2022-11-15T08:35:40.976Z,22.80
2022-11-15T08:38:07.740Z,23.37
2022-11-15T08:40:34.610Z,15.33
2022-11-15T08:43:03.498Z,18.03
2022-11-15T08:45:31.269Z,14.00
2022-11-15T08:47:58.219Z,17.30
2022-11-15T08:50:25.049Z,15.43
2022-11-15T08:52:51.858Z,13.67
2022-11-15T08:55:18.709Z,17.30
2022-11-15T08:57:45.754Z,17.50
2022-11-15T09:00:13.556Z,14.57
2022-11-15T09:02:40.943Z,12.20
2022-11-15T09:05:08.297Z,14.17
2022-11-15T09:07:35.359Z,15.00
2022-11-15T09:10:02.206Z,11.13
2022-11-15T09:12:29.331Z,11.13
2022-11-15T09:14:56.195Z,13.93
2022-11-15T09:17:24.850Z,9.60
2022-11-15T09:19:52.037Z,14.77
2022-11-15T09:22:18.913Z,12.20
2022-11-15T09:24:45.916Z,13.60
2022-11-15T09:27:14.246Z,11.60
2022-11-15T09:29:41.122Z,12.77
2022-11-15T09:32:07.945Z,11.00
2022-11-15T09:34:34.748Z,16.10
2022-11-15T09:37:01.505Z,12.87
2022-11-15T09:39:28.310Z,9.67
2022-11-15T09:42:03.341Z,14.33
2022-11-15T09:44:40.346Z,14.60
2022-11-15T09:47:23.599Z,9.03
2022-11-15T09:49:57.867Z,9.73
2022-11-15T09:52:24.873Z,12.00
2022-11-15T09:54:54.344Z,8.13
2022-11-15T09:57:31.510Z,8.00
2022-11-15T10:00:30.646Z,9.80
2022-11-15T10:03:10.307Z,11.50
2022-11-15T10:05:50.040Z,7.93
2022-11-15T10:08:39.535Z,10.47
2022-11-15T10:11:36.110Z,9.00
2022-11-15T10:13:59.730Z,11.17
2022-11-15T10:16:29.667Z,7.63
2022-11-15T10:19:12.701Z,12.67
2022-11-15T10:22:01.569Z,13.37
2022-11-15T10:24:29.850Z,14.13
2022-11-15T10:26:57.329Z,11.03
2022-11-15T10:29:26.995Z,10.17
2022-11-15T10:31:54.203Z,8.90
2022-11-15T10:34:23.105Z,7.77
2022-11-15T10:37:01.273Z,11.30
2022-11-15T10:39:28.406Z,10.33
2022-11-15T10:41:55.354Z,9.50
2022-11-15T10:44:29.696Z,12.50
2022-11-15T10:46:56.446Z,10.87
2022-11-15T10:49:27.104Z,6.87
2022-11-15T10:51:54.625Z,12.73
2022-11-15T10:54:39.512Z,8.70
2022-11-15T10:57:15.129Z,14.23
2022-11-15T10:59:47.380Z,10.27
2022-11-15T11:02:36.528Z,7.27
2022-11-15T11:05:05.086Z,10.17
2022-11-15T11:07:33.842Z,10.63
2022-11-15T11:10:13.289Z,10.50
2022-11-15T11:12:49.737Z,13.83
2022-11-15T11:15:17.018Z,8.97
2022-11-15T11:17:55.952Z,10.13
2022-11-15T11:20:25.978Z,9.55
2022-11-15T11:23:41.262Z,9.77
2022-11-15T11:26:31.053Z,10.10
2022-11-15T11:29:31.492Z,10.80
2022-11-15T11:32:07.385Z,9.07
2022-11-15T11:34:43.135Z,11.63
2022-11-15T11:37:22.765Z,10.50
2022-11-15T11:39:55.462Z,5.67
2022-11-15T11:42:28.425Z,8.77
2022-11-15T11:45:47.166Z,12.47
2022-11-15T11:48:15.765Z,12.83
2022-11-15T11:50:43.623Z,12.27
2022-11-15T11:53:16.689Z,8.57
2022-11-15T11:55:51.149Z,13.80
2022-11-15T11:58:20.889Z,7.97
2022-11-15T12:01:01.887Z,5.27
2022-11-15T12:03:58.192Z,9.57
2022-11-15T12:06:28.071Z,7.83
2022-11-15T12:09:13.402Z,7.43
2022-11-15T12:11:48.186Z,6.10
2022-11-15T12:14:36.173Z,8.63
2022-11-15T12:17:03.033Z,6.53
2022-11-15T12:19:30.385Z,11.07
2022-11-15T12:22:02.052Z,7.47
2022-11-15T12:25:00.913Z,8.50
2022-11-15T12:27:50.108Z,6.03
2022-11-15T12:30:18.679Z,8.50
2022-11-15T12:32:57.930Z,10.10
2022-11-15T12:35:30.561Z,9.30
2022-11-15T12:37:57.693Z,10.23
2022-11-15T12:40:27.538Z,8.50
2022-11-15T12:43:26.247Z,8.30
2022-11-15T12:45:53.034Z,7.50
2022-11-15T12:48:19.893Z,9.10
2022-11-15T12:50:55.231Z,12.73
2022-11-15T12:53:25.492Z,7.25
2022-11-15T12:56:04.741Z,13.40
2022-11-15T12:58:44.122Z,9.57
2022-11-15T13:01:11.540Z,8.27
2022-11-15T13:04:15.428Z,6.53
2022-11-15T13:07:05.980Z,6.20
2022-11-15T13:09:38.486Z,7.60
2022-11-15T13:12:26.960Z,10.80
2022-11-15T13:15:00.195Z,5.47
2022-11-15T13:17:30.734Z,8.30
2022-11-15T13:20:01.371Z,7.80
2022-11-15T13:22:47.796Z,9.13
2022-11-15T13:25:49.832Z,7.43
2022-11-15T13:28:16.674Z,5.57
2022-11-15T13:30:53.197Z,5.53
2022-11-15T13:33:36.854Z,8.37
2022-11-15T13:36:09.487Z,11.13
2022-11-15T13:38:38.180Z,8.98
2022-11-15T13:41:24.616Z,6.97
2022-11-15T13:43:52.361Z,7.17
2022-11-15T13:46:23.061Z,5.35
2022-11-15T13:48:57.076Z,8.47
2022-11-15T13:51:26.770Z,6.67
2022-11-15T13:54:07.010Z,5.78
2022-11-15T13:56:35.063Z,8.03
2022-11-15T13:59:09.317Z,10.10
2022-11-15T14:01:36.311Z,4.90
2022-11-15T14:04:03.194Z,6.90
2022-11-15T14:06:30.820Z,8.02
2022-11-15T14:09:12.886Z,8.97
2022-11-15T14:11:51.210Z,7.83
2022-11-15T14:14:18.020Z,6.50
2022-11-15T14:16:53.351Z,4.43
2022-11-15T14:19:25.973Z,5.50
2022-11-15T14:22:17.049Z,9.80
2022-11-15T14:24:49.059Z,6.77
2022-11-15T14:27:27.033Z,8.43
2022-11-15T14:29:54.206Z,6.93
2022-11-15T14:32:31.297Z,5.20
2022-11-15T14:35:02.810Z,5.73
2022-11-15T14:37:36.913Z,7.83
2022-11-15T14:40:05.027Z,6.63
2022-11-15T14:42:31.946Z,8.63
2022-11-15T14:44:58.853Z,5.03
2022-11-15T14:47:25.610Z,6.77
2022-11-15T14:49:52.538Z,10.00
2022-11-15T14:52:31.810Z,8.40
2022-11-15T14:55:00.323Z,8.23
2022-11-15T14:57:27.174Z,6.23
2022-11-15T14:59:54.033Z,5.00
2022-11-15T15:02:22.095Z,8.10
2022-11-15T15:04:49.365Z,5.67
2022-11-15T15:07:16.503Z,5.73
2022-11-15T15:09:43.421Z,5.37
2022-11-15T15:12:18.313Z,5.17
2022-11-15T15:14:45.914Z,8.23
2022-11-15T15:17:12.745Z,8.03
2022-11-15T15:19:39.568Z,6.40
2022-11-15T15:22:06.750Z,5.37
2022-11-15T15:24:33.545Z,8.50
2022-11-15T15:27:00.370Z,8.20
2022-11-15T15:29:27.211Z,13.13
2022-11-15T15:31:53.969Z,5.63
2022-11-15T15:34:20.810Z,11.93
2022-11-15T15:36:47.649Z,6.90
2022-11-15T15:39:14.450Z,6.30
2022-11-15T15:41:41.249Z,7.30
2022-11-15T15:44:08.071Z,6.33
2022-11-15T15:46:36.436Z,6.83
2022-11-15T15:49:03.286Z,7.37
2022-11-15T15:51:30.197Z,9.63
2022-11-15T15:53:58.157Z,5.57
2022-11-15T15:56:25.274Z,7.90
2022-11-15T15:58:53.589Z,8.43
2022-11-15T16:01:21.473Z,8.13
2022-11-15T16:03:48.338Z,6.87
2022-11-15T16:06:40.214Z,8.43
2022-11-15T16:09:15.408Z,8.67
2022-11-15T16:11:44.401Z,7.63
2022-11-15T16:14:11.321Z,6.30
2022-11-15T16:16:38.895Z,10.10
2022-11-15T16:19:05.745Z,6.47
2022-11-15T16:21:32.560Z,9.30
2022-11-15T16:23:59.480Z,10.30
2022-11-15T16:26:29.823Z,9.40
2022-11-15T16:28:56.629Z,8.70
2022-11-15T16:31:23.508Z,7.87
2022-11-15T16:33:50.356Z,8.77
2022-11-15T16:36:25.617Z,8.10
2022-11-15T16:38:55.437Z,10.13
2022-11-15T16:41:22.312Z,8.80
2022-11-15T16:43:49.377Z,10.90
2022-11-15T16:46:23.359Z,8.27
2022-11-15T16:48:51.307Z,10.83
2022-11-15T16:51:18.208Z,7.97
2022-11-15T16:53:45.005Z,9.43
2022-11-15T16:56:30.870Z,10.17
2022-11-15T16:59:01.485Z,9.50
2022-11-15T17:01:30.156Z,9.70
2022-11-15T17:03:57.148Z,10.20
2022-11-15T17:06:24.297Z,11.97
2022-11-15T17:08:51.106Z,10.50
2022-11-15T17:11:19.910Z,11.37
2022-11-15T17:13:46.953Z,8.83
2022-11-15T17:16:14.835Z,8.47
2022-11-15T17:18:42.348Z,11.03
2022-11-15T17:21:22.652Z,10.63
2022-11-15T17:23:49.465Z,11.23
2022-11-15T17:26:34.995Z,8.53
2022-11-15T17:29:07.780Z,9.27
2022-11-15T17:31:37.613Z,9.50
2022-11-15T17:34:05.311Z,9.23
2022-11-15T17:36:32.228Z,9.97
2022-11-15T17:39:00.016Z,9.93
2022-11-15T17:41:27.648Z,9.47
2022-11-15T17:43:56.013Z,10.37
2022-11-15T17:46:22.868Z,9.27
2022-11-15T17:48:50.014Z,9.53
2022-11-15T17:51:17.713Z,9.67
2022-11-15T17:53:49.168Z,9.93
2022-11-15T17:56:17.953Z,9.93
2022-11-15T17:59:03.186Z,9.13
2022-11-15T18:01:31.467Z,10.20
2022-11-15T18:04:00.593Z,10.80
2022-11-15T18:06:30.378Z,9.37
2022-11-15T18:08:57.400Z,9.13
2022-11-15T18:11:26.264Z,10.77
2022-11-15T18:13:54.990Z,9.23
2022-11-15T18:16:23.002Z,13.37
2022-11-15T18:18:49.826Z,11.40
2022-11-15T18:21:24.621Z,9.43
2022-11-15T18:23:56.794Z,12.37
2022-11-15T18:26:27.216Z,11.00
2022-11-15T18:29:02.030Z,11.63
2022-11-15T18:31:30.041Z,10.17
2022-11-15T18:33:58.872Z,12.60
2022-11-15T18:36:27.070Z,9.60
2022-11-15T18:38:57.442Z,11.20
2022-11-15T18:41:30.951Z,11.10
2022-11-15T18:44:01.449Z,11.43
2022-11-15T18:46:30.759Z,11.87
2022-11-15T18:48:59.108Z,10.63
2022-11-15T18:51:27.152Z,11.27
2022-11-15T18:53:54.668Z,12.23
2022-11-15T18:56:21.959Z,12.97
2022-11-15T18:58:54.157Z,12.60
2022-11-15T19:01:27.830Z,12.17
2022-11-15T19:03:56.169Z,12.67
2022-11-15T19:06:23.760Z,11.33
2022-11-15T19:08:52.989Z,12.70
2022-11-15T19:11:25.568Z,10.77
2022-11-15T19:13:59.642Z,10.43
2022-11-15T19:16:27.307Z,10.03
2022-11-15T19:18:55.178Z,12.13
2022-11-15T19:21:22.062Z,12.63
2022-11-15T19:23:48.946Z,12.10
2022-11-15T19:26:16.041Z,10.50
2022-11-15T19:28:43.244Z,10.50
2022-11-15T19:31:14.269Z,11.43
2022-11-15T19:33:42.082Z,12.17
2022-11-15T19:36:19.182Z,17.70
2022-11-15T19:38:46.178Z,13.30
2022-11-15T19:41:19.614Z,16.17
2022-11-15T19:43:50.755Z,12.93
2022-11-15T19:46:18.297Z,16.13
2022-11-15T19:48:45.252Z,12.77
2022-11-15T19:51:16.504Z,13.80
2022-11-15T19:53:43.625Z,17.93
2022-11-15T19:56:12.249Z,15.10
2022-11-15T19:58:39.554Z,12.80
2022-11-15T20:01:22.326Z,14.77
2022-11-15T20:03:50.245Z,15.50
2022-11-15T20:06:31.043Z,16.47
2022-11-15T20:08:58.067Z,12.33
2022-11-15T20:11:25.856Z,15.23
2022-11-15T20:13:56.106Z,13.67
2022-11-15T20:16:22.877Z,14.73
2022-11-15T20:18:50.146Z,14.40
2022-11-15T20:21:17.214Z,14.52
2022-11-15T20:23:45.189Z,11.73
2022-11-15T20:26:14.105Z,11.33
2022-11-15T20:28:40.960Z,13.87
2022-11-15T20:31:08.212Z,13.63
2022-11-15T20:33:35.011Z,11.97
2022-11-15T20:36:12.558Z,12.83
2022-11-15T20:38:39.471Z,15.80
2022-11-15T20:41:06.388Z,12.27
2022-11-15T20:43:33.178Z,13.43
2022-11-15T20:45:59.945Z,10.50
2022-11-15T20:48:27.250Z,14.68
2022-11-15T20:51:06.580Z,13.83
2022-11-15T20:53:33.617Z,12.53
2022-11-15T20:56:07.773Z,15.38
2022-11-15T20:58:36.010Z,14.97
2022-11-15T21:01:03.452Z,10.83
2022-11-15T21:03:30.317Z,16.07
2022-11-15T21:05:57.193Z,11.20
2022-11-15T21:08:24.045Z,13.57
2022-11-15T21:11:10.032Z,13.60
2022-11-15T21:13:37.201Z,12.60
2022-11-15T21:16:04.390Z,14.40
2022-11-15T21:18:33.700Z,14.15
2022-11-15T21:21:06.730Z,15.55
2022-11-15T21:23:33.601Z,13.73
2022-11-15T21:26:00.391Z,12.60
2022-11-15T21:28:27.155Z,13.50
2022-11-15T21:30:58.998Z,11.68
2022-11-15T21:33:27.664Z,15.48
2022-11-15T21:35:55.181Z,11.63
2022-11-15T21:38:23.713Z,13.73
2022-11-15T21:40:53.706Z,11.90
2022-11-15T21:43:20.760Z,15.38
2022-11-15T21:45:59.145Z,15.82
2022-11-15T21:48:26.624Z,14.73
2022-11-15T21:51:01.827Z,14.20
2022-11-15T21:53:28.848Z,18.65
2022-11-15T21:55:55.669Z,18.30
2022-11-15T21:58:22.591Z,13.93
2022-11-15T22:01:07.900Z,15.37
2022-11-15T22:03:34.965Z,14.32
2022-11-15T22:06:02.046Z,12.57
2022-11-15T22:08:28.837Z,14.20
2022-11-15T22:10:56.877Z,17.35
2022-11-15T22:13:24.640Z,13.10
2022-11-15T22:15:51.688Z,17.27
2022-11-15T22:18:26.164Z,14.50
2022-11-15T22:20:57.845Z,17.92
2022-11-15T22:23:25.258Z,14.83
2022-11-15T22:25:52.216Z,14.57
2022-11-15T22:28:19.153Z,14.13
2022-11-15T22:30:50.457Z,16.27
2022-11-15T22:33:19.020Z,15.53
2022-11-15T22:35:46.322Z,13.53
2022-11-15T22:38:13.205Z,16.33
2022-11-15T22:40:40.216Z,10.97
2022-11-15T22:43:07.173Z,12.90
2022-11-15T22:45:34.088Z,11.53
2022-11-15T22:48:00.940Z,10.40
2022-11-15T22:50:27.742Z,9.23
2022-11-15T22:52:54.588Z,9.80
2022-11-15T22:55:21.419Z,10.77
2022-11-15T22:57:48.320Z,10.60
2022-11-15T23:00:15.974Z,9.73
2022-11-15T23:02:42.958Z,8.30
2022-11-15T23:05:09.810Z,7.00
2022-11-15T23:07:36.719Z,9.87
2022-11-15T23:10:22.296Z,11.77
2022-11-15T23:13:07.840Z,8.50
2022-11-15T23:15:53.128Z,8.00
2022-11-15T23:18:20.012Z,8.97
2022-11-15T23:20:46.822Z,8.60
2022-11-15T23:23:13.841Z,6.97
2022-11-15T23:25:40.740Z,6.37
2022-11-15T23:28:07.649Z,6.63
2022-11-15T23:30:56.488Z,8.37
2022-11-15T23:33:41.955Z,8.47
2022-11-15T23:36:09.044Z,5.87
2022-11-15T23:38:39.076Z,7.77
2022-11-15T23:41:06.313Z,6.90
2022-11-15T23:43:33.146Z,5.27
2022-11-15T23:46:03.002Z,7.83
2022-11-15T23:48:29.979Z,8.43
2022-11-15T23:50:56.946Z,8.03
2022-11-15T23:53:23.896Z,8.00
2022-11-15T23:56:03.557Z,9.83
2022-11-15T23:58:30.525Z,6.00
